Terminal Aerodrome Forecast
Issued by NWS Shreveport, LA

Home | Current Version | Previous Version | Text Only | Print | Product List | Glossary On
Versions: 1 2 3 4 5 6 7 8 9 10 11 12
000
FTUS44 KSHV 040538
TAFGGG
TAF
KGGG 040538Z 0406/0506 VRB03KT P6SM SKC
     FM041500 23005KT P6SM SCT250
     FM041700 17007KT P6SM SCT050 SCT250
     FM050100 15005KT P6SM BKN250=

USA.gov is the U.S. government's official web portal to all federal, state and local government web resources and services.